Time;durP1;ratioP1;P1;durP2;ratioP2;P2;SDS_P1;SDS_P2;PMS_P1;PMS_P2;Temp;Humidity;BMP_temperature;BMP_pressure;BME280_temperature;BME280_humidity;BME280_pressure;Samples;Min_cycle;Max_cycle;Signal;HPM_P1;HPM_P2
2023/09/15 00:01:44;;;;;;;7.60;4.70;;;14.20;99.90;;;;;;5025853;28;20225;-63
2023/09/15 00:04:13;;;;;;;5.23;4.80;;;14.20;99.90;;;;;;5028390;28;20224;-63
2023/09/15 00:06:46;;;;;;;5.60;5.20;;;14.10;99.90;;;;;;5034345;28;20254;-63
2023/09/15 00:09:15;;;;;;;6.80;4.77;;;14.10;99.90;;;;;;5034038;28;20193;-63
2023/09/15 00:11:47;;;;;;;5.30;4.77;;;14.00;99.90;;;;;;5036347;28;20204;-63
2023/09/15 00:14:17;;;;;;;6.10;5.07;;;14.00;99.90;;;;;;5033966;28;20591;-63
2023/09/15 00:16:46;;;;;;;5.53;5.07;;;14.00;99.90;;;;;;5032618;28;20262;-63
2023/09/15 00:19:16;;;;;;;5.33;4.73;;;13.90;99.90;;;;;;5043920;28;20297;-62
2023/09/15 00:21:47;;;;;;;5.60;4.97;;;13.90;99.90;;;;;;5044598;28;20224;-62
2023/09/15 00:24:16;;;;;;;5.33;4.70;;;13.90;99.90;;;;;;5037121;28;20248;-62
2023/09/15 00:26:44;;;;;;;5.43;4.47;;;13.80;99.90;;;;;;5036857;28;20206;-63
2023/09/15 00:29:13;;;;;;;6.50;4.50;;;13.80;99.90;;;;;;5035444;28;20240;-63
2023/09/15 00:31:42;;;;;;;4.53;4.20;;;13.80;99.90;;;;;;5026259;28;20235;-63
2023/09/15 00:34:14;;;;;;;5.13;4.60;;;13.80;99.90;;;;;;5032068;28;20232;-63
2023/09/15 00:36:45;;;;;;;5.50;4.40;;;13.70;99.90;;;;;;5037341;28;20637;-63
2023/09/15 00:39:14;;;;;;;5.23;4.90;;;13.70;99.90;;;;;;5033444;28;20201;-63
2023/09/15 00:41:42;;;;;;;8.83;5.40;;;13.70;99.90;;;;;;5036031;28;20203;-63
2023/09/15 00:44:11;;;;;;;5.60;5.07;;;13.70;99.90;;;;;;5031781;28;20594;-63
2023/09/15 00:46:39;;;;;;;6.43;5.43;;;13.70;99.90;;;;;;5035400;28;20627;-63
2023/09/15 00:49:09;;;;;;;5.73;5.23;;;13.70;99.90;;;;;;5035508;28;20274;-63
2023/09/15 00:51:38;;;;;;;6.17;5.33;;;13.70;99.90;;;;;;5034612;28;20316;-63
2023/09/15 00:54:08;;;;;;;5.10;4.60;;;13.60;99.90;;;;;;5033676;28;20195;-63
2023/09/15 00:56:37;;;;;;;5.20;4.80;;;13.50;99.90;;;;;;5034429;28;20199;-63
2023/09/15 00:59:05;;;;;;;5.50;5.03;;;13.50;99.90;;;;;;5048052;28;20267;-63
2023/09/15 01:01:35;;;;;;;5.00;4.60;;;13.50;99.90;;;;;;5048379;28;20220;-63
2023/09/15 01:04:04;;;;;;;6.27;5.57;;;13.50;99.90;;;;;;5040982;28;20235;-62
2023/09/15 01:06:36;;;;;;;5.90;5.30;;;13.50;99.90;;;;;;5052085;28;20221;-63
2023/09/15 01:09:05;;;;;;;6.53;5.10;;;13.50;99.90;;;;;;5049201;28;20193;-63
2023/09/15 01:11:34;;;;;;;5.27;4.77;;;13.40;99.90;;;;;;5055234;28;20189;-63
2023/09/15 01:14:02;;;;;;;5.37;4.83;;;13.40;99.90;;;;;;5051468;28;20591;-62
2023/09/15 01:16:38;;;;;;;5.30;4.90;;;13.40;99.90;;;;;;5050887;28;20233;-63
2023/09/15 01:19:32;;;;;;;8.10;5.27;;;13.30;99.90;;;;;;5052173;28;20290;-63
2023/09/15 01:22:24;;;;;;;5.50;5.10;;;13.30;99.90;;;;;;5051113;28;20218;-62
2023/09/15 01:25:24;;;;;;;5.83;5.23;;;13.30;99.90;;;;;;5049950;28;20213;-62
2023/09/15 01:28:23;;;;;;;6.27;5.47;;;13.30;99.90;;;;;;5041054;28;20311;-62
2023/09/15 01:30:54;;;;;;;5.90;5.40;;;13.30;99.90;;;;;;5016422;28;20212;-62
2023/09/15 01:33:24;;;;;;;7.53;5.33;;;13.20;99.90;;;;;;5045700;28;20228;-62
2023/09/15 01:35:53;;;;;;;5.47;5.03;;;13.20;99.90;;;;;;5052487;28;20682;-62
2023/09/15 01:38:21;;;;;;;5.70;5.30;;;13.20;99.90;;;;;;5048641;28;20311;-63
2023/09/15 01:40:50;;;;;;;5.73;5.33;;;13.20;99.90;;;;;;5054929;28;20599;-63
2023/09/15 01:43:18;;;;;;;5.97;5.50;;;13.10;99.90;;;;;;5050839;28;20583;-63
2023/09/15 01:45:46;;;;;;;5.47;5.07;;;13.10;99.90;;;;;;5054536;28;20221;-63
2023/09/15 01:48:17;;;;;;;5.80;5.10;;;13.00;99.90;;;;;;5050274;28;20249;-63
2023/09/15 01:50:47;;;;;;;6.77;5.60;;;13.00;99.90;;;;;;5055145;28;20193;-62
2023/09/15 01:53:16;;;;;;;6.07;5.57;;;13.00;99.90;;;;;;5055199;28;20219;-63
2023/09/15 01:55:45;;;;;;;10.30;6.33;;;13.00;99.90;;;;;;5054499;28;20227;-63
2023/09/15 01:58:13;;;;;;;8.03;5.80;;;13.00;99.90;;;;;;5047024;28;20262;-63
2023/09/15 02:00:42;;;;;;;6.60;5.93;;;13.00;99.90;;;;;;5053909;28;20232;-63
2023/09/15 02:03:12;;;;;;;6.57;6.03;;;12.90;99.90;;;;;;5044197;28;20201;-63
2023/09/15 02:05:42;;;;;;;6.77;6.27;;;13.00;99.90;;;;;;5054692;28;20203;-63
2023/09/15 02:08:10;;;;;;;6.37;5.87;;;13.00;99.90;;;;;;5053309;28;20226;-63
2023/09/15 02:10:38;;;;;;;6.70;6.10;;;13.00;99.90;;;;;;5050189;28;20638;-63
2023/09/15 02:13:07;;;;;;;5.93;5.33;;;12.90;99.90;;;;;;5051538;28;20587;-63
2023/09/15 02:15:35;;;;;;;5.70;5.20;;;12.90;99.90;;;;;;5049639;28;20287;-63
2023/09/15 02:18:04;;;;;;;5.83;5.43;;;12.90;99.90;;;;;;5034220;28;20186;-63
2023/09/15 02:20:34;;;;;;;9.10;5.70;;;12.90;99.90;;;;;;5049787;28;20200;-62
2023/09/15 02:23:04;;;;;;;6.10;5.60;;;12.80;99.90;;;;;;5033911;28;20221;-63
2023/09/15 02:25:32;;;;;;;6.70;5.97;;;12.80;99.90;;;;;;5033503;28;20238;-63
2023/09/15 02:28:02;;;;;;;5.80;5.40;;;12.70;99.90;;;;;;5026714;28;20564;-64
2023/09/15 02:30:31;;;;;;;6.97;6.30;;;12.70;99.90;;;;;;5029419;28;20561;-63
2023/09/15 02:32:59;;;;;;;6.70;5.40;;;12.70;99.90;;;;;;5028925;28;20643;-63
2023/09/15 02:35:28;;;;;;;7.17;6.47;;;12.70;99.90;;;;;;5032167;28;20229;-63
2023/09/15 02:37:57;;;;;;;6.73;6.00;;;12.70;99.90;;;;;;5030335;28;20226;-63
2023/09/15 02:40:26;;;;;;;7.37;6.03;;;12.70;99.90;;;;;;5031989;28;20231;-63
2023/09/15 02:42:55;;;;;;;7.67;6.17;;;12.60;99.90;;;;;;5035368;28;20232;-63
2023/09/15 02:45:23;;;;;;;6.57;5.97;;;12.60;99.90;;;;;;5038879;28;20226;-63
2023/09/15 02:47:52;;;;;;;6.40;5.90;;;12.50;99.90;;;;;;5036711;28;20190;-62
2023/09/15 02:50:21;;;;;;;6.23;5.70;;;12.50;99.90;;;;;;5033303;28;20221;-63
2023/09/15 02:52:49;;;;;;;6.60;6.00;;;12.50;99.90;;;;;;5033421;28;20576;-62
2023/09/15 02:55:18;;;;;;;7.10;6.40;;;12.50;99.90;;;;;;5033200;28;20226;-61
2023/09/15 02:57:50;;;;;;;6.60;6.00;;;12.40;99.90;;;;;;5047940;28;20210;-62
2023/09/15 03:00:19;;;;;;;8.73;6.40;;;12.40;99.90;;;;;;5025150;28;20313;-63
2023/09/15 03:02:47;;;;;;;6.80;6.03;;;12.50;99.90;;;;;;5032852;28;20193;-63
2023/09/15 03:05:16;;;;;;;7.13;6.37;;;12.40;99.90;;;;;;5034428;28;20213;-63
2023/09/15 03:07:45;;;;;;;7.13;6.53;;;12.40;99.90;;;;;;5028640;28;20230;-62
2023/09/15 03:10:13;;;;;;;9.97;6.90;;;12.40;99.90;;;;;;5037975;28;20224;-63
2023/09/15 03:12:42;;;;;;;7.30;6.70;;;12.30;99.90;;;;;;5040973;28;20220;-63
2023/09/15 03:15:12;;;;;;;6.90;6.20;;;12.30;99.90;;;;;;5035728;28;20237;-62
2023/09/15 03:17:40;;;;;;;6.70;6.07;;;12.30;99.90;;;;;;5037901;28;20193;-63
2023/09/15 03:20:13;;;;;;;8.57;6.43;;;12.20;99.90;;;;;;5034065;28;20601;-62
2023/09/15 03:22:42;;;;;;;7.30;6.60;;;12.20;99.90;;;;;;5035069;28;21087;-62
2023/09/15 03:25:10;;;;;;;8.57;6.67;;;12.20;99.90;;;;;;5035502;28;20221;-63
2023/09/15 03:27:39;;;;;;;11.57;6.80;;;12.20;99.90;;;;;;5035015;28;20225;-63
2023/09/15 03:30:08;;;;;;;6.70;6.00;;;12.20;99.90;;;;;;5032279;28;20615;-63
2023/09/15 03:32:38;;;;;;;9.77;6.83;;;12.20;99.90;;;;;;5032056;28;20517;-63
2023/09/15 03:35:07;;;;;;;9.10;6.43;;;12.10;99.90;;;;;;5032522;28;20218;-63
2023/09/15 03:37:36;;;;;;;7.60;6.90;;;12.10;99.90;;;;;;5034250;28;20233;-63
2023/09/15 03:40:07;;;;;;;8.23;7.17;;;12.10;99.90;;;;;;5036244;28;20324;-62
2023/09/15 03:42:35;;;;;;;9.03;7.17;;;12.10;99.90;;;;;;5035236;28;20224;-62
2023/09/15 03:45:05;;;;;;;8.33;6.80;;;12.10;99.90;;;;;;5033936;28;20197;-62
2023/09/15 03:47:33;;;;;;;8.03;6.33;;;12.00;99.90;;;;;;5029365;28;20203;-63
2023/09/15 03:50:03;;;;;;;9.70;7.33;;;12.00;99.90;;;;;;5049918;28;20240;-63
2023/09/15 03:52:32;;;;;;;7.40;6.60;;;12.00;99.90;;;;;;5056782;28;20702;-63
2023/09/15 03:55:02;;;;;;;7.97;6.63;;;12.00;99.90;;;;;;5053505;28;20579;-62
2023/09/15 03:57:31;;;;;;;9.17;6.70;;;11.90;99.90;;;;;;5057857;28;20271;-62
2023/09/15 03:59:59;;;;;;;9.23;7.10;;;11.90;99.90;;;;;;5057637;28;20212;-63
2023/09/15 04:02:29;;;;;;;8.60;7.70;;;11.90;99.90;;;;;;5052169;28;20220;-63
2023/09/15 04:04:57;;;;;;;8.00;7.30;;;11.90;99.90;;;;;;5052508;28;20220;-63
2023/09/15 04:07:27;;;;;;;12.33;7.40;;;11.90;99.90;;;;;;5052403;28;20220;-62
2023/09/15 04:09:57;;;;;;;7.33;6.73;;;11.90;99.90;;;;;;5055956;28;20315;-62
2023/09/15 04:12:26;;;;;;;7.87;7.17;;;11.90;99.90;;;;;;5049056;28;20218;-62
2023/09/15 04:14:54;;;;;;;8.50;7.70;;;11.90;99.90;;;;;;5051106;28;20228;-62
2023/09/15 04:17:22;;;;;;;8.20;7.03;;;11.90;99.90;;;;;;5053806;28;20223;-63
2023/09/15 04:19:50;;;;;;;7.97;7.27;;;11.90;99.90;;;;;;5051701;28;20221;-63
2023/09/15 04:22:19;;;;;;;9.57;7.40;;;12.00;99.90;;;;;;5055209;28;20224;-62
2023/09/15 04:24:48;;;;;;;9.17;7.27;;;11.90;99.90;;;;;;5056607;28;20567;-62
2023/09/15 04:27:17;;;;;;;8.93;7.30;;;11.80;99.90;;;;;;5055283;28;20197;-63
2023/09/15 04:29:52;;;;;;;9.43;6.93;;;11.90;99.90;;;;;;5057581;28;20218;-62
2023/09/15 04:32:21;;;;;;;10.00;7.60;;;11.80;99.90;;;;;;5059171;28;20217;-62
2023/09/15 04:34:50;;;;;;;8.00;7.30;;;11.80;99.90;;;;;;5051142;28;20223;-62
2023/09/15 04:37:19;;;;;;;9.37;6.70;;;11.80;99.90;;;;;;5057640;28;20303;-63
2023/09/15 04:39:50;;;;;;;10.93;6.70;;;11.70;99.90;;;;;;5053445;28;20686;-63
2023/09/15 04:42:19;;;;;;;9.87;6.57;;;11.70;99.90;;;;;;5054821;28;20218;-63
2023/09/15 04:44:47;;;;;;;9.87;7.17;;;11.70;99.90;;;;;;5051886;28;20192;-62
2023/09/15 04:47:30;;;;;;;10.03;6.13;;;11.70;99.90;;;;;;5052046;28;20243;-64
2023/09/15 04:49:59;;;;;;;11.70;6.70;;;11.70;99.90;;;;;;5047233;28;20307;-62
2023/09/15 04:52:27;;;;;;;11.50;6.13;;;11.70;99.90;;;;;;5054580;28;20682;-63
2023/09/15 04:54:57;;;;;;;7.20;6.23;;;11.70;99.90;;;;;;5054981;28;20600;-62
2023/09/15 04:57:26;;;;;;;6.57;5.90;;;11.70;99.90;;;;;;5053655;28;20221;-63
2023/09/15 04:59:55;;;;;;;14.20;6.50;;;11.60;99.90;;;;;;5051522;28;20212;-63
2023/09/15 05:02:23;;;;;;;10.47;6.33;;;11.60;99.90;;;;;;5048546;28;20213;-62
2023/09/15 05:04:52;;;;;;;7.53;6.20;;;11.70;99.90;;;;;;5052497;28;20617;-63
2023/09/15 05:07:21;;;;;;;8.70;6.13;;;11.60;99.90;;;;;;5053939;28;20216;-63
2023/09/15 05:09:51;;;;;;;10.97;6.37;;;11.60;99.90;;;;;;5056063;28;20238;-63
2023/09/15 05:12:21;;;;;;;11.23;6.20;;;11.60;99.90;;;;;;5054988;28;20236;-63
2023/09/15 05:14:49;;;;;;;11.60;6.10;;;11.50;99.90;;;;;;5053840;28;20229;-63
2023/09/15 05:17:17;;;;;;;10.13;6.27;;;11.50;99.90;;;;;;5049275;28;20216;-63
2023/09/15 05:19:49;;;;;;;8.60;5.37;;;11.50;99.90;;;;;;5048454;28;20232;-62
2023/09/15 05:22:17;;;;;;;7.67;6.10;;;11.50;99.90;;;;;;5044118;28;20598;-63
2023/09/15 05:24:45;;;;;;;9.53;6.33;;;11.50;99.90;;;;;;5031772;28;20238;-63
2023/09/15 05:27:14;;;;;;;8.87;6.40;;;11.50;99.90;;;;;;5034357;28;20664;-63
2023/09/15 05:29:44;;;;;;;9.07;6.20;;;11.50;99.90;;;;;;5034860;28;20197;-62
2023/09/15 05:32:12;;;;;;;7.03;5.37;;;11.50;99.90;;;;;;5029756;28;20221;-63
2023/09/15 05:34:41;;;;;;;8.17;5.60;;;11.50;99.90;;;;;;5030199;28;20225;-62
2023/09/15 05:37:09;;;;;;;11.53;6.13;;;11.50;99.90;;;;;;5036487;28;20356;-64
2023/09/15 05:39:37;;;;;;;9.67;5.93;;;11.50;99.90;;;;;;5034158;28;20599;-63
2023/09/15 05:42:06;;;;;;;9.80;6.20;;;11.50;99.90;;;;;;5028527;28;20209;-62
2023/09/15 05:44:34;;;;;;;7.30;6.10;;;11.60;99.90;;;;;;5034518;28;20197;-63
2023/09/15 05:47:04;;;;;;;9.27;6.03;;;11.50;99.90;;;;;;5042986;28;20216;-63
2023/09/15 05:49:32;;;;;;;6.77;6.07;;;11.60;99.90;;;;;;5051559;28;20235;-63
2023/09/15 05:52:02;;;;;;;10.47;6.20;;;11.60;99.90;;;;;;5052977;28;20220;-63
2023/09/15 05:54:31;;;;;;;11.60;6.40;;;11.70;99.90;;;;;;5045452;28;20224;-63
2023/09/15 05:57:00;;;;;;;8.43;6.80;;;11.70;99.90;;;;;;5051810;28;20207;-63
2023/09/15 05:59:29;;;;;;;10.33;6.50;;;11.70;99.90;;;;;;5053167;28;20227;-63
2023/09/15 06:01:57;;;;;;;17.90;8.50;;;11.70;99.90;;;;;;5053220;28;20311;-63
2023/09/15 06:04:28;;;;;;;7.30;6.43;;;11.80;99.90;;;;;;5030762;28;20833;-62
2023/09/15 06:06:56;;;;;;;10.17;7.40;;;11.90;99.90;;;;;;5026157;28;20319;-62
2023/09/15 06:09:24;;;;;;;9.60;7.37;;;11.90;99.90;;;;;;5029134;28;20228;-62
2023/09/15 06:11:53;;;;;;;9.47;7.23;;;11.90;99.90;;;;;;5049544;28;21198;-62
2023/09/15 06:14:21;;;;;;;9.23;7.50;;;11.90;99.90;;;;;;5060735;28;20699;-62
2023/09/15 06:16:50;;;;;;;9.60;6.87;;;11.80;99.90;;;;;;5046620;28;20218;-63
2023/09/15 06:19:18;;;;;;;8.87;6.73;;;11.80;99.90;;;;;;5048025;28;20327;-63
2023/09/15 06:21:48;;;;;;;7.50;6.87;;;11.80;99.90;;;;;;5053604;28;20427;-63
2023/09/15 06:24:16;;;;;;;9.83;7.03;;;11.90;99.90;;;;;;5054798;28;20189;-63
2023/09/15 06:26:45;;;;;;;8.53;7.63;;;11.90;99.90;;;;;;5046242;28;20198;-63
2023/09/15 06:29:15;;;;;;;7.77;6.97;;;12.00;99.90;;;;;;5045184;28;20228;-63
2023/09/15 06:31:43;;;;;;;13.33;7.33;;;12.10;99.90;;;;;;5051950;28;20220;-63
2023/09/15 06:34:12;;;;;;;8.87;7.40;;;12.20;99.90;;;;;;5050211;28;20227;-63
2023/09/15 06:36:41;;;;;;;8.57;7.57;;;12.20;99.90;;;;;;5044520;28;21125;-62
2023/09/15 06:39:10;;;;;;;9.10;7.50;;;12.40;99.90;;;;;;5052801;28;20200;-63
2023/09/15 06:41:39;;;;;;;13.63;7.90;;;12.60;99.90;;;;;;5055821;28;20217;-63
2023/09/15 06:44:07;;;;;;;8.27;7.43;;;12.80;99.90;;;;;;5056089;28;20254;-63
2023/09/15 06:46:35;;;;;;;14.47;7.70;;;13.10;99.90;;;;;;5055835;28;20223;-63
2023/09/15 06:49:04;;;;;;;7.77;6.83;;;13.40;99.90;;;;;;5051090;28;20217;-63
2023/09/15 06:51:33;;;;;;;9.97;6.97;;;13.60;99.90;;;;;;5054524;28;20303;-63
2023/09/15 06:54:01;;;;;;;9.37;6.50;;;13.90;99.90;;;;;;5052887;28;20201;-63
2023/09/15 06:56:32;;;;;;;7.80;6.30;;;14.10;99.90;;;;;;5049630;28;20220;-63
2023/09/15 06:59:00;;;;;;;7.23;6.57;;;14.40;99.90;;;;;;5051875;28;20557;-63
2023/09/15 07:01:28;;;;;;;14.27;7.50;;;14.70;99.90;;;;;;5053056;28;20777;-63
2023/09/15 07:03:57;;;;;;;9.77;6.80;;;14.90;99.90;;;;;;5051819;28;20657;-63
2023/09/15 07:06:25;;;;;;;13.07;7.00;;;15.10;99.90;;;;;;5054381;28;20230;-64
2023/09/15 07:08:53;;;;;;;7.83;6.73;;;15.30;99.90;;;;;;5054711;28;20194;-63
2023/09/15 07:11:22;;;;;;;13.83;6.77;;;15.50;99.90;;;;;;5057785;28;20222;-63
2023/09/15 07:13:55;;;;;;;9.17;6.23;;;15.70;99.90;;;;;;5055096;28;20230;-63
2023/09/15 07:16:24;;;;;;;10.80;6.53;;;15.80;99.90;;;;;;5060600;28;20234;-63
2023/09/15 07:18:52;;;;;;;8.00;5.93;;;16.00;99.90;;;;;;5059656;28;20219;-63
2023/09/15 07:21:21;;;;;;;7.87;6.43;;;16.10;99.90;;;;;;5057383;28;20253;-64
2023/09/15 07:23:49;;;;;;;14.60;6.17;;;16.30;99.90;;;;;;5059012;28;20266;-63
2023/09/15 07:26:18;;;;;;;11.50;6.33;;;16.40;99.90;;;;;;5058992;28;20693;-63
2023/09/15 07:28:46;;;;;;;14.03;6.23;;;16.70;99.90;;;;;;5057514;28;20765;-63
2023/09/15 07:31:17;;;;;;;10.70;5.83;;;16.80;99.90;;;;;;5051647;28;20639;-63
2023/09/15 07:33:45;;;;;;;10.10;5.80;;;16.90;99.90;;;;;;5048238;28;20219;-64
2023/09/15 07:36:14;;;;;;;9.87;6.20;;;17.00;99.90;;;;;;5054307;28;20195;-63
2023/09/15 07:38:43;;;;;;;9.23;5.63;;;17.20;99.90;;;;;;5054627;28;20197;-63
2023/09/15 07:41:11;;;;;;;9.53;5.50;;;17.40;99.90;;;;;;5055489;28;20274;-64
2023/09/15 07:43:39;;;;;;;7.27;6.07;;;17.60;99.90;;;;;;5052376;28;20240;-63
2023/09/15 07:46:08;;;;;;;11.60;6.30;;;17.90;99.90;;;;;;5056937;28;20235;-63
2023/09/15 07:48:44;;;;;;;8.57;5.37;;;18.10;99.90;;;;;;5051111;28;20215;-64
2023/09/15 07:51:13;;;;;;;12.80;5.57;;;18.30;99.90;;;;;;5051692;28;20283;-63
2023/09/15 07:53:42;;;;;;;11.63;5.37;;;18.50;99.90;;;;;;5049771;28;20196;-63
2023/09/15 07:56:11;;;;;;;9.90;5.30;;;18.60;99.90;;;;;;5053812;28;20310;-64
2023/09/15 07:58:40;;;;;;;9.10;5.43;;;18.80;99.90;;;;;;5053394;28;20227;-63
2023/09/15 08:01:09;;;;;;;6.20;4.43;;;18.90;99.90;;;;;;5057455;28;20235;-64
2023/09/15 08:03:38;;;;;;;10.13;4.93;;;18.90;99.90;;;;;;5050487;28;20235;-64
2023/09/15 08:06:09;;;;;;;7.67;4.93;;;18.90;99.90;;;;;;5051171;28;20544;-63
2023/09/15 08:08:37;;;;;;;10.33;4.73;;;19.20;99.90;;;;;;5049385;28;20192;-63
2023/09/15 08:11:05;;;;;;;5.07;4.50;;;19.20;99.90;;;;;;5046450;28;20222;-63
2023/09/15 08:13:34;;;;;;;5.60;5.10;;;19.40;99.90;;;;;;5049736;28;20236;-64
2023/09/15 08:16:02;;;;;;;10.27;5.60;;;19.60;99.90;;;;;;5051392;28;20578;-63
2023/09/15 08:18:31;;;;;;;7.43;5.37;;;19.60;99.90;;;;;;5047186;28;20224;-64
2023/09/15 08:21:00;;;;;;;9.37;5.17;;;19.80;99.90;;;;;;5051729;28;20564;-63
2023/09/15 08:23:29;;;;;;;9.60;5.53;;;20.00;99.90;;;;;;5029027;28;20324;-64
2023/09/15 08:25:57;;;;;;;11.00;5.00;;;20.00;99.90;;;;;;5048783;28;20221;-63
2023/09/15 08:28:26;;;;;;;6.23;4.70;;;20.00;99.90;;;;;;5055946;28;20238;-64
2023/09/15 08:30:55;;;;;;;7.23;5.03;;;20.10;99.90;;;;;;5054293;28;20224;-64
2023/09/15 08:33:23;;;;;;;5.70;4.43;;;20.30;99.90;;;;;;5051890;28;20242;-64
2023/09/15 08:35:51;;;;;;;6.73;4.57;;;20.20;99.90;;;;;;5052537;28;20199;-63
2023/09/15 08:38:20;;;;;;;5.93;4.13;;;20.20;99.90;;;;;;5054809;28;20220;-64
2023/09/15 08:40:51;;;;;;;8.77;4.70;;;20.50;99.90;;;;;;5052691;28;20228;-64
2023/09/15 08:43:21;;;;;;;4.27;3.97;;;20.60;99.90;;;;;;5050483;28;20230;-64
2023/09/15 08:45:51;;;;;;;6.40;4.40;;;20.80;99.90;;;;;;5056763;28;20244;-63
2023/09/15 08:48:25;;;;;;;7.30;4.13;;;20.90;99.90;;;;;;5053330;28;20220;-64
2023/09/15 08:50:55;;;;;;;5.87;4.57;;;20.90;99.90;;;;;;5051335;28;20665;-64
2023/09/15 08:53:24;;;;;;;5.90;3.90;;;20.90;99.90;;;;;;5052319;28;20247;-64
2023/09/15 08:55:55;;;;;;;5.37;3.60;;;21.10;99.90;;;;;;5055771;28;20220;-64
2023/09/15 08:58:26;;;;;;;3.83;3.50;;;21.20;99.90;;;;;;5055140;28;20226;-64
2023/09/15 09:00:55;;;;;;;5.20;4.00;;;21.20;99.90;;;;;;5056833;28;20224;-64
2023/09/15 09:03:24;;;;;;;7.97;3.83;;;21.40;99.90;;;;;;5052299;28;20805;-64
2023/09/15 09:05:54;;;;;;;4.80;3.60;;;21.50;99.90;;;;;;5051716;28;20667;-65
2023/09/15 09:08:24;;;;;;;4.33;3.50;;;21.60;99.90;;;;;;5052413;28;20299;-64
2023/09/15 09:10:54;;;;;;;3.37;2.97;;;21.60;99.90;;;;;;5052949;28;20787;-64
2023/09/15 09:13:23;;;;;;;5.10;3.27;;;21.60;99.90;;;;;;5058482;28;20216;-64
2023/09/15 09:16:11;;;;;;;4.90;3.17;;;21.60;99.90;;;;;;5049800;28;20324;-64
2023/09/15 09:18:40;;;;;;;5.43;3.20;;;21.80;99.90;;;;;;5054534;28;20316;-64
2023/09/15 09:21:09;;;;;;;5.47;3.20;;;21.90;99.90;;;;;;5051431;28;20290;-64
2023/09/15 09:23:37;;;;;;;5.20;3.00;;;21.90;99.90;;;;;;5057411;28;20603;-64
2023/09/15 09:26:13;;;;;;;9.37;3.43;;;22.10;99.90;;;;;;5051589;28;20221;-64
2023/09/15 09:28:41;;;;;;;4.03;3.20;;;22.40;99.90;;;;;;5057376;28;20230;-64
2023/09/15 09:31:10;;;;;;;5.90;3.27;;;22.40;99.90;;;;;;5049552;28;20225;-64
2023/09/15 09:33:39;;;;;;;6.33;3.53;;;22.50;99.90;;;;;;5051403;28;20229;-64
2023/09/15 09:36:14;;;;;;;4.40;3.30;;;22.70;99.90;;;;;;5048124;28;20209;-64
2023/09/15 09:38:48;;;;;;;6.73;3.60;;;22.90;99.90;;;;;;5050477;28;20189;-64
2023/09/15 09:41:19;;;;;;;3.67;2.80;;;22.90;99.90;;;;;;5052374;28;20278;-64
2023/09/15 09:43:49;;;;;;;12.13;3.00;;;23.10;99.90;;;;;;5057888;28;20230;-63
2023/09/15 09:46:20;;;;;;;3.63;3.33;;;23.20;99.90;;;;;;5057463;28;20310;-63
2023/09/15 09:48:49;;;;;;;3.67;2.87;;;23.30;99.90;;;;;;5053222;28;20230;-63
2023/09/15 09:51:19;;;;;;;3.17;2.93;;;23.20;99.90;;;;;;5053721;28;20640;-63
2023/09/15 09:53:53;;;;;;;2.90;2.60;;;23.00;99.90;;;;;;5059201;28;20192;-64
2023/09/15 09:56:23;;;;;;;3.03;2.83;;;22.80;99.90;;;;;;5054381;28;20281;-63
2023/09/15 09:58:51;;;;;;;4.00;2.97;;;22.80;99.90;;;;;;5060148;28;20272;-63
2023/09/15 10:01:20;;;;;;;2.30;2.20;;;23.00;99.90;;;;;;5057234;28;20304;-63
2023/09/15 10:03:49;;;;;;;3.73;2.60;;;23.10;99.90;;;;;;5055283;28;20242;-64
2023/09/15 10:06:18;;;;;;;4.60;2.50;;;23.40;99.90;;;;;;5059300;28;20544;-64
2023/09/15 10:08:47;;;;;;;3.07;2.77;;;23.60;99.90;;;;;;5052737;28;20216;-64
2023/09/15 10:11:17;;;;;;;2.53;2.33;;;24.00;99.90;;;;;;5053338;28;20233;-64
2023/09/15 10:13:48;;;;;;;2.90;2.37;;;24.20;99.90;;;;;;5055564;28;21045;-64
2023/09/15 10:16:18;;;;;;;3.87;2.80;;;24.30;99.90;;;;;;5054811;28;20228;-64
2023/09/15 10:18:47;;;;;;;5.50;3.03;;;24.40;99.90;;;;;;5055641;28;20290;-64
2023/09/15 10:21:17;;;;;;;4.67;2.77;;;24.40;99.90;;;;;;5056347;28;20189;-64
2023/09/15 10:23:46;;;;;;;2.93;2.67;;;24.40;99.90;;;;;;5055135;28;20299;-63
2023/09/15 10:26:14;;;;;;;4.47;3.30;;;24.50;99.90;;;;;;5055385;28;21113;-64
2023/09/15 10:28:49;;;;;;;3.10;2.80;;;24.50;99.90;;;;;;5053230;28;20220;-64
2023/09/15 10:31:18;;;;;;;2.77;2.53;;;24.60;99.90;;;;;;5058876;28;20221;-64
2023/09/15 10:33:47;;;;;;;3.10;2.77;;;24.60;99.90;;;;;;5045555;28;20733;-63
2023/09/15 10:36:17;;;;;;;6.03;2.90;;;24.90;99.90;;;;;;5053346;28;20251;-64
2023/09/15 10:38:47;;;;;;;3.50;3.30;;;24.80;99.90;;;;;;5057033;28;20202;-64
2023/09/15 10:41:27;;;;;;;3.10;2.80;;;24.90;99.90;;;;;;5054515;28;20217;-64
2023/09/15 10:43:57;;;;;;;5.43;3.30;;;24.90;99.90;;;;;;5057218;28;20970;-64
2023/09/15 10:46:36;;;;;;;5.87;3.00;;;25.00;99.90;;;;;;5058825;28;20772;-64
2023/09/15 10:49:15;;;;;;;4.80;3.20;;;25.00;99.90;;;;;;5055486;28;20223;-64
2023/09/15 10:51:57;;;;;;;3.97;3.10;;;25.00;99.90;;;;;;5047499;28;20232;-63
2023/09/15 10:54:27;;;;;;;3.43;2.70;;;25.10;99.90;;;;;;5056114;28;20229;-64
2023/09/15 10:56:56;;;;;;;3.30;2.67;;;25.10;99.90;;;;;;5051495;28;21213;-63
2023/09/15 10:59:27;;;;;;;3.83;2.80;;;25.20;99.90;;;;;;5050561;28;20216;-64
2023/09/15 11:01:56;;;;;;;4.00;3.10;;;25.30;99.90;;;;;;5055360;28;20221;-64
2023/09/15 11:04:25;;;;;;;5.47;2.60;;;25.30;99.90;;;;;;5046378;28;20229;-63
2023/09/15 11:06:54;;;;;;;4.70;3.23;;;25.40;99.90;;;;;;5054095;28;20762;-63
2023/09/15 11:09:25;;;;;;;4.25;3.30;;;25.50;99.90;;;;;;5058020;28;20236;-63
2023/09/15 11:11:53;;;;;;;3.70;3.23;;;25.60;99.90;;;;;;5050501;28;20283;-63
2023/09/15 11:14:26;;;;;;;3.47;3.20;;;25.60;99.90;;;;;;5049385;28;20255;-63
2023/09/15 11:16:56;;;;;;;6.13;3.60;;;25.70;99.90;;;;;;5053228;28;20221;-63
2023/09/15 11:19:28;;;;;;;5.97;2.70;;;25.80;99.90;;;;;;5054859;28;20231;-64
2023/09/15 11:21:58;;;;;;;3.75;3.40;;;25.70;99.90;;;;;;5051758;28;20690;-64
2023/09/15 11:24:26;;;;;;;5.93;3.45;;;25.90;99.90;;;;;;5058947;28;20593;-64
2023/09/15 11:26:55;;;;;;;4.00;3.35;;;25.90;99.90;;;;;;5058845;28;20637;-64
2023/09/15 11:29:29;;;;;;;5.40;2.95;;;26.10;99.90;;;;;;5058889;28;20582;-64
2023/09/15 11:31:59;;;;;;;7.90;3.88;;;26.10;99.90;;;;;;5064239;28;20321;-63
2023/09/15 11:34:27;;;;;;;4.63;3.20;;;26.10;99.90;;;;;;5060864;28;20210;-64
2023/09/15 11:36:59;;;;;;;6.28;3.30;;;26.40;99.90;;;;;;5056500;28;20681;-64
2023/09/15 11:39:28;;;;;;;6.43;3.17;;;26.40;99.90;;;;;;5056648;28;20740;-64
2023/09/15 11:41:58;;;;;;;6.35;3.38;;;26.30;99.90;;;;;;5049650;28;20209;-64
2023/09/15 11:44:30;;;;;;;7.90;3.63;;;26.20;99.90;;;;;;5052793;28;20357;-64
2023/09/15 11:47:00;;;;;;;6.50;3.00;;;26.00;99.90;;;;;;5055892;28;20229;-64
2023/09/15 11:49:30;;;;;;;6.68;3.08;;;25.90;99.90;;;;;;5059200;28;20315;-64
2023/09/15 11:51:59;;;;;;;8.05;2.90;;;25.90;99.90;;;;;;5051061;28;20308;-64
2023/09/15 11:54:28;;;;;;;7.67;3.03;;;26.00;99.90;;;;;;5055381;28;20221;-64
2023/09/15 11:56:57;;;;;;;4.25;3.13;;;26.20;99.90;;;;;;5048656;28;20228;-63
2023/09/15 11:59:29;;;;;;;6.32;2.75;;;26.40;99.90;;;;;;5049297;28;20269;-64
2023/09/15 12:01:59;;;;;;;3.88;2.65;;;26.50;99.90;;;;;;5031102;28;20933;-64
2023/09/15 12:04:29;;;;;;;5.05;3.00;;;26.80;99.90;;;;;;5029601;28;20227;-65
2023/09/15 12:06:58;;;;;;;5.28;2.70;;;27.00;99.90;;;;;;5038823;28;20239;-64
2023/09/15 12:09:27;;;;;;;9.13;3.10;;;27.20;99.90;;;;;;5054676;28;20679;-64
2023/09/15 12:11:55;;;;;;;4.90;2.97;;;27.50;99.90;;;;;;5048421;28;20267;-64
2023/09/15 12:14:25;;;;;;;3.17;2.97;;;27.50;99.90;;;;;;5039236;28;20285;-64
2023/09/15 12:16:58;;;;;;;4.65;2.47;;;27.20;99.90;;;;;;5049771;28;20574;-64
2023/09/15 12:19:26;;;;;;;5.97;2.78;;;27.20;99.90;;;;;;5043697;28;20214;-64
2023/09/15 12:21:59;;;;;;;2.65;2.45;;;27.20;99.90;;;;;;5032224;28;20683;-63
2023/09/15 12:24:28;;;;;;;3.30;3.08;;;27.00;99.90;;;;;;5035977;28;20229;-63
2023/09/15 12:26:59;;;;;;;6.97;2.80;;;26.90;99.90;;;;;;5034997;28;20221;-63
2023/09/15 12:29:28;;;;;;;2.55;2.38;;;26.90;99.90;;;;;;5032479;28;20715;-64
2023/09/15 12:31:58;;;;;;;2.67;2.50;;;27.00;99.90;;;;;;5034864;28;20271;-63
2023/09/15 12:34:27;;;;;;;2.50;2.40;;;26.90;99.90;;;;;;5033919;28;20234;-63
2023/09/15 12:36:56;;;;;;;6.38;2.45;;;27.00;99.90;;;;;;5035103;28;20220;-63
2023/09/15 12:39:25;;;;;;;3.33;2.30;;;27.00;99.90;;;;;;5037310;28;20242;-63
2023/09/15 12:42:01;;;;;;;4.32;2.55;;;27.20;99.90;;;;;;5034151;28;20654;-63
2023/09/15 12:44:42;;;;;;;3.70;2.40;;;27.10;99.90;;;;;;5033728;28;20214;-64
2023/09/15 12:47:12;;;;;;;4.15;2.55;;;26.90;99.90;;;;;;5052234;28;20600;-64
2023/09/15 12:49:41;;;;;;;6.83;2.93;;;26.90;99.90;;;;;;5039666;28;20233;-64
2023/09/15 12:52:10;;;;;;;3.47;2.40;;;26.80;99.90;;;;;;5043892;28;20224;-63
2023/09/15 12:54:39;;;;;;;2.63;2.33;;;26.70;99.90;;;;;;5050035;28;21649;-64
2023/09/15 12:57:07;;;;;;;3.87;2.23;;;26.60;99.90;;;;;;5033680;28;20212;-63
2023/09/15 12:59:36;;;;;;;3.10;2.00;;;26.40;99.90;;;;;;5032328;28;20197;-64